sensor_id;sensor_type;location;lat;lon;timestamp;P1;durP1;ratioP1;P2;durP2;ratioP2
9256;SDS011;4665;51.368;6.782;2023-03-03T00:02:14;45.23;;;25.50;;
9256;SDS011;4665;51.368;6.782;2023-03-03T00:04:40;46.77;;;26.10;;
9256;SDS011;4665;51.368;6.782;2023-03-03T00:07:05;47.27;;;25.73;;
9256;SDS011;4665;51.368;6.782;2023-03-03T00:09:32;47.33;;;25.67;;
9256;SDS011;4665;51.368;6.782;2023-03-03T00:11:57;45.70;;;25.43;;
9256;SDS011;4665;51.368;6.782;2023-03-03T00:14:29;47.33;;;25.07;;
9256;SDS011;4665;51.368;6.782;2023-03-03T00:16:56;50.30;;;26.60;;
9256;SDS011;4665;51.368;6.782;2023-03-03T00:19:24;47.43;;;25.87;;
9256;SDS011;4665;51.368;6.782;2023-03-03T00:21:50;50.43;;;26.23;;
9256;SDS011;4665;51.368;6.782;2023-03-03T00:24:23;48.53;;;26.60;;
9256;SDS011;4665;51.368;6.782;2023-03-03T00:26:59;49.47;;;25.33;;
9256;SDS011;4665;51.368;6.782;2023-03-03T00:31:54;54.83;;;29.03;;
9256;SDS011;4665;51.368;6.782;2023-03-03T00:34:31;54.03;;;27.10;;
9256;SDS011;4665;51.368;6.782;2023-03-03T00:36:58;51.53;;;26.73;;
9256;SDS011;4665;51.368;6.782;2023-03-03T00:39:36;49.37;;;26.27;;
9256;SDS011;4665;51.368;6.782;2023-03-03T00:42:12;55.90;;;28.63;;
9256;SDS011;4665;51.368;6.782;2023-03-03T00:44:44;53.63;;;27.93;;
9256;SDS011;4665;51.368;6.782;2023-03-03T00:47:24;54.40;;;27.93;;
9256;SDS011;4665;51.368;6.782;2023-03-03T00:49:53;55.60;;;26.67;;
9256;SDS011;4665;51.368;6.782;2023-03-03T00:52:20;54.27;;;27.17;;
9256;SDS011;4665;51.368;6.782;2023-03-03T00:54:47;48.00;;;25.80;;
9256;SDS011;4665;51.368;6.782;2023-03-03T00:57:13;48.50;;;25.23;;
9256;SDS011;4665;51.368;6.782;2023-03-03T00:59:38;48.97;;;26.20;;
9256;SDS011;4665;51.368;6.782;2023-03-03T01:02:04;48.07;;;25.37;;
9256;SDS011;4665;51.368;6.782;2023-03-03T01:04:30;48.63;;;25.37;;
9256;SDS011;4665;51.368;6.782;2023-03-03T01:06:55;49.53;;;25.83;;
9256;SDS011;4665;51.368;6.782;2023-03-03T01:09:21;49.77;;;25.73;;
9256;SDS011;4665;51.368;6.782;2023-03-03T01:11:47;51.50;;;26.33;;
9256;SDS011;4665;51.368;6.782;2023-03-03T01:14:13;47.13;;;26.43;;
9256;SDS011;4665;51.368;6.782;2023-03-03T01:16:38;45.83;;;25.93;;
9256;SDS011;4665;51.368;6.782;2023-03-03T01:19:05;52.17;;;27.03;;
9256;SDS011;4665;51.368;6.782;2023-03-03T01:21:31;50.97;;;26.50;;
9256;SDS011;4665;51.368;6.782;2023-03-03T01:23:57;52.23;;;27.43;;
9256;SDS011;4665;51.368;6.782;2023-03-03T01:26:22;48.17;;;26.77;;
9256;SDS011;4665;51.368;6.782;2023-03-03T01:28:47;50.93;;;27.13;;
9256;SDS011;4665;51.368;6.782;2023-03-03T01:31:13;52.50;;;27.80;;
9256;SDS011;4665;51.368;6.782;2023-03-03T01:33:38;51.10;;;27.40;;
9256;SDS011;4665;51.368;6.782;2023-03-03T01:36:04;57.20;;;29.37;;
9256;SDS011;4665;51.368;6.782;2023-03-03T01:38:30;48.30;;;27.80;;
9256;SDS011;4665;51.368;6.782;2023-03-03T01:40:57;56.13;;;29.73;;
9256;SDS011;4665;51.368;6.782;2023-03-03T01:43:27;54.73;;;29.93;;
9256;SDS011;4665;51.368;6.782;2023-03-03T01:48:30;56.17;;;29.17;;
9256;SDS011;4665;51.368;6.782;2023-03-03T01:51:20;50.70;;;28.73;;
9256;SDS011;4665;51.368;6.782;2023-03-03T01:53:50;49.33;;;25.97;;
9256;SDS011;4665;51.368;6.782;2023-03-03T01:56:19;53.83;;;28.20;;
9256;SDS011;4665;51.368;6.782;2023-03-03T01:58:46;50.90;;;26.70;;
9256;SDS011;4665;51.368;6.782;2023-03-03T02:01:22;45.50;;;26.30;;
9256;SDS011;4665;51.368;6.782;2023-03-03T02:03:50;49.43;;;26.73;;
9256;SDS011;4665;51.368;6.782;2023-03-03T02:06:18;45.83;;;26.43;;
9256;SDS011;4665;51.368;6.782;2023-03-03T02:11:44;44.83;;;24.60;;
9256;SDS011;4665;51.368;6.782;2023-03-03T02:14:13;43.27;;;24.93;;
9256;SDS011;4665;51.368;6.782;2023-03-03T02:16:38;38.77;;;24.67;;
9256;SDS011;4665;51.368;6.782;2023-03-03T02:19:05;44.77;;;25.97;;
9256;SDS011;4665;51.368;6.782;2023-03-03T02:21:41;40.30;;;23.07;;
9256;SDS011;4665;51.368;6.782;2023-03-03T02:24:23;42.20;;;23.90;;
9256;SDS011;4665;51.368;6.782;2023-03-03T02:26:52;41.53;;;24.07;;
9256;SDS011;4665;51.368;6.782;2023-03-03T02:29:18;42.83;;;24.70;;
9256;SDS011;4665;51.368;6.782;2023-03-03T02:31:44;45.63;;;25.33;;
9256;SDS011;4665;51.368;6.782;2023-03-03T02:34:09;50.03;;;26.23;;
9256;SDS011;4665;51.368;6.782;2023-03-03T02:36:35;51.57;;;27.03;;
9256;SDS011;4665;51.368;6.782;2023-03-03T02:39:19;49.17;;;25.47;;
9256;SDS011;4665;51.368;6.782;2023-03-03T02:41:53;49.23;;;24.40;;
9256;SDS011;4665;51.368;6.782;2023-03-03T02:44:40;47.53;;;25.40;;
9256;SDS011;4665;51.368;6.782;2023-03-03T02:47:06;47.87;;;26.10;;
9256;SDS011;4665;51.368;6.782;2023-03-03T02:49:33;47.03;;;25.80;;
9256;SDS011;4665;51.368;6.782;2023-03-03T02:52:00;50.70;;;26.10;;
9256;SDS011;4665;51.368;6.782;2023-03-03T02:54:28;43.27;;;24.83;;
9256;SDS011;4665;51.368;6.782;2023-03-03T02:56:58;41.07;;;23.67;;
9256;SDS011;4665;51.368;6.782;2023-03-03T02:59:24;39.33;;;23.47;;
9256;SDS011;4665;51.368;6.782;2023-03-03T03:01:50;40.47;;;23.47;;
9256;SDS011;4665;51.368;6.782;2023-03-03T03:04:20;38.90;;;23.33;;
9256;SDS011;4665;51.368;6.782;2023-03-03T03:06:47;35.93;;;21.93;;
9256;SDS011;4665;51.368;6.782;2023-03-03T03:09:14;38.20;;;21.30;;
9256;SDS011;4665;51.368;6.782;2023-03-03T03:11:41;38.00;;;22.17;;
9256;SDS011;4665;51.368;6.782;2023-03-03T03:14:07;35.97;;;21.13;;
9256;SDS011;4665;51.368;6.782;2023-03-03T03:16:34;39.07;;;22.73;;
9256;SDS011;4665;51.368;6.782;2023-03-03T03:19:00;40.40;;;23.43;;
9256;SDS011;4665;51.368;6.782;2023-03-03T03:21:27;43.90;;;23.70;;
9256;SDS011;4665;51.368;6.782;2023-03-03T03:23:52;47.53;;;25.03;;
9256;SDS011;4665;51.368;6.782;2023-03-03T03:26:18;52.83;;;26.83;;
9256;SDS011;4665;51.368;6.782;2023-03-03T03:28:45;47.03;;;25.77;;
9256;SDS011;4665;51.368;6.782;2023-03-03T03:31:11;58.77;;;28.27;;
9256;SDS011;4665;51.368;6.782;2023-03-03T03:33:36;50.60;;;27.17;;
9256;SDS011;4665;51.368;6.782;2023-03-03T03:36:02;54.37;;;28.20;;
9256;SDS011;4665;51.368;6.782;2023-03-03T03:38:30;52.37;;;27.67;;
9256;SDS011;4665;51.368;6.782;2023-03-03T03:40:57;50.03;;;28.43;;
9256;SDS011;4665;51.368;6.782;2023-03-03T03:43:23;54.03;;;27.27;;
9256;SDS011;4665;51.368;6.782;2023-03-03T03:45:49;47.57;;;27.30;;
9256;SDS011;4665;51.368;6.782;2023-03-03T03:48:14;50.83;;;27.37;;
9256;SDS011;4665;51.368;6.782;2023-03-03T03:50:41;53.30;;;28.30;;
9256;SDS011;4665;51.368;6.782;2023-03-03T03:53:08;49.43;;;26.33;;
9256;SDS011;4665;51.368;6.782;2023-03-03T03:55:33;54.83;;;29.40;;
9256;SDS011;4665;51.368;6.782;2023-03-03T03:57:58;51.47;;;26.57;;
9256;SDS011;4665;51.368;6.782;2023-03-03T04:00:24;47.77;;;26.97;;
9256;SDS011;4665;51.368;6.782;2023-03-03T04:02:50;46.57;;;25.30;;
9256;SDS011;4665;51.368;6.782;2023-03-03T04:05:16;49.20;;;26.07;;
9256;SDS011;4665;51.368;6.782;2023-03-03T04:07:41;48.37;;;26.63;;
9256;SDS011;4665;51.368;6.782;2023-03-03T04:10:07;49.40;;;25.93;;
9256;SDS011;4665;51.368;6.782;2023-03-03T04:12:33;43.47;;;24.47;;
9256;SDS011;4665;51.368;6.782;2023-03-03T04:15:05;52.50;;;27.97;;
9256;SDS011;4665;51.368;6.782;2023-03-03T04:17:33;57.63;;;29.53;;
9256;SDS011;4665;51.368;6.782;2023-03-03T04:19:59;50.43;;;28.00;;
9256;SDS011;4665;51.368;6.782;2023-03-03T04:22:26;55.63;;;28.13;;
9256;SDS011;4665;51.368;6.782;2023-03-03T04:24:52;55.37;;;28.60;;
9256;SDS011;4665;51.368;6.782;2023-03-03T04:27:17;54.10;;;28.03;;
9256;SDS011;4665;51.368;6.782;2023-03-03T04:29:42;55.93;;;27.73;;
9256;SDS011;4665;51.368;6.782;2023-03-03T04:32:08;54.50;;;28.53;;
9256;SDS011;4665;51.368;6.782;2023-03-03T04:34:33;57.40;;;28.90;;
9256;SDS011;4665;51.368;6.782;2023-03-03T04:36:59;54.53;;;27.57;;
9256;SDS011;4665;51.368;6.782;2023-03-03T04:39:25;58.37;;;28.07;;
9256;SDS011;4665;51.368;6.782;2023-03-03T04:41:52;60.27;;;29.63;;
9256;SDS011;4665;51.368;6.782;2023-03-03T04:44:17;60.50;;;28.83;;
9256;SDS011;4665;51.368;6.782;2023-03-03T04:46:42;60.23;;;29.80;;
9256;SDS011;4665;51.368;6.782;2023-03-03T04:49:08;61.70;;;30.30;;
9256;SDS011;4665;51.368;6.782;2023-03-03T04:51:34;56.97;;;28.43;;
9256;SDS011;4665;51.368;6.782;2023-03-03T04:53:59;52.03;;;27.57;;
9256;SDS011;4665;51.368;6.782;2023-03-03T04:56:25;51.77;;;26.67;;
9256;SDS011;4665;51.368;6.782;2023-03-03T04:58:50;50.97;;;27.50;;
9256;SDS011;4665;51.368;6.782;2023-03-03T05:01:16;60.47;;;29.07;;
9256;SDS011;4665;51.368;6.782;2023-03-03T05:03:43;52.37;;;28.07;;
9256;SDS011;4665;51.368;6.782;2023-03-03T05:06:09;52.20;;;26.03;;
9256;SDS011;4665;51.368;6.782;2023-03-03T05:08:34;46.67;;;24.80;;
9256;SDS011;4665;51.368;6.782;2023-03-03T05:10:59;39.90;;;22.03;;
9256;SDS011;4665;51.368;6.782;2023-03-03T05:13:25;36.43;;;22.33;;
9256;SDS011;4665;51.368;6.782;2023-03-03T05:15:54;39.27;;;21.43;;
9256;SDS011;4665;51.368;6.782;2023-03-03T05:18:23;41.07;;;20.97;;
9256;SDS011;4665;51.368;6.782;2023-03-03T05:20:50;39.80;;;21.53;;
9256;SDS011;4665;51.368;6.782;2023-03-03T05:23:16;39.17;;;20.43;;
9256;SDS011;4665;51.368;6.782;2023-03-03T05:25:42;36.10;;;19.20;;
9256;SDS011;4665;51.368;6.782;2023-03-03T05:28:08;32.07;;;18.83;;
9256;SDS011;4665;51.368;6.782;2023-03-03T05:30:34;33.40;;;18.07;;
9256;SDS011;4665;51.368;6.782;2023-03-03T05:33:01;33.77;;;18.27;;
9256;SDS011;4665;51.368;6.782;2023-03-03T05:35:27;29.30;;;15.93;;
9256;SDS011;4665;51.368;6.782;2023-03-03T05:37:53;26.07;;;16.07;;
9256;SDS011;4665;51.368;6.782;2023-03-03T05:40:19;25.20;;;15.67;;
9256;SDS011;4665;51.368;6.782;2023-03-03T05:42:44;25.63;;;16.47;;
9256;SDS011;4665;51.368;6.782;2023-03-03T05:45:10;25.83;;;15.67;;
9256;SDS011;4665;51.368;6.782;2023-03-03T05:47:36;27.30;;;15.77;;
9256;SDS011;4665;51.368;6.782;2023-03-03T05:50:02;30.10;;;16.90;;
9256;SDS011;4665;51.368;6.782;2023-03-03T05:52:28;25.67;;;15.10;;
9256;SDS011;4665;51.368;6.782;2023-03-03T05:54:53;27.33;;;16.07;;
9256;SDS011;4665;51.368;6.782;2023-03-03T05:57:18;28.03;;;17.43;;
9256;SDS011;4665;51.368;6.782;2023-03-03T05:59:44;28.83;;;16.87;;
9256;SDS011;4665;51.368;6.782;2023-03-03T06:02:09;31.23;;;18.17;;
9256;SDS011;4665;51.368;6.782;2023-03-03T06:04:34;29.63;;;17.23;;
9256;SDS011;4665;51.368;6.782;2023-03-03T06:07:00;29.50;;;17.17;;
9256;SDS011;4665;51.368;6.782;2023-03-03T06:09:26;30.63;;;17.13;;
9256;SDS011;4665;51.368;6.782;2023-03-03T06:11:51;29.73;;;16.83;;
9256;SDS011;4665;51.368;6.782;2023-03-03T06:14:18;30.27;;;17.70;;
9256;SDS011;4665;51.368;6.782;2023-03-03T06:16:45;34.77;;;19.00;;
9256;SDS011;4665;51.368;6.782;2023-03-03T06:19:11;38.80;;;20.63;;
9256;SDS011;4665;51.368;6.782;2023-03-03T06:21:36;39.87;;;20.77;;
9256;SDS011;4665;51.368;6.782;2023-03-03T06:24:01;40.53;;;20.90;;
9256;SDS011;4665;51.368;6.782;2023-03-03T06:26:27;50.67;;;24.50;;
9256;SDS011;4665;51.368;6.782;2023-03-03T06:28:53;47.67;;;23.93;;
9256;SDS011;4665;51.368;6.782;2023-03-03T06:31:19;49.73;;;23.37;;
9256;SDS011;4665;51.368;6.782;2023-03-03T06:33:45;49.83;;;22.77;;
9256;SDS011;4665;51.368;6.782;2023-03-03T06:36:10;44.93;;;22.53;;
9256;SDS011;4665;51.368;6.782;2023-03-03T06:38:36;47.83;;;23.33;;
9256;SDS011;4665;51.368;6.782;2023-03-03T06:41:01;50.77;;;25.50;;
9256;SDS011;4665;51.368;6.782;2023-03-03T06:43:31;57.03;;;26.03;;
9256;SDS011;4665;51.368;6.782;2023-03-03T06:45:57;55.27;;;25.27;;
9256;SDS011;4665;51.368;6.782;2023-03-03T06:48:22;53.27;;;24.70;;
9256;SDS011;4665;51.368;6.782;2023-03-03T06:50:47;44.50;;;22.93;;
9256;SDS011;4665;51.368;6.782;2023-03-03T06:53:14;51.90;;;24.47;;
9256;SDS011;4665;51.368;6.782;2023-03-03T06:55:41;46.97;;;23.67;;
9256;SDS011;4665;51.368;6.782;2023-03-03T06:58:19;48.50;;;25.00;;
9256;SDS011;4665;51.368;6.782;2023-03-03T07:00:53;50.90;;;25.50;;
9256;SDS011;4665;51.368;6.782;2023-03-03T07:03:25;55.03;;;25.80;;
9256;SDS011;4665;51.368;6.782;2023-03-03T07:05:53;45.70;;;23.83;;
9256;SDS011;4665;51.368;6.782;2023-03-03T07:08:21;50.30;;;24.63;;
9256;SDS011;4665;51.368;6.782;2023-03-03T07:10:47;48.27;;;24.40;;
9256;SDS011;4665;51.368;6.782;2023-03-03T07:13:21;50.27;;;25.13;;
9256;SDS011;4665;51.368;6.782;2023-03-03T07:15:52;47.23;;;24.53;;
9256;SDS011;4665;51.368;6.782;2023-03-03T07:23:43;54.20;;;24.77;;
9256;SDS011;4665;51.368;6.782;2023-03-03T07:26:11;49.83;;;25.17;;
9256;SDS011;4665;51.368;6.782;2023-03-03T07:28:41;58.43;;;25.50;;
9256;SDS011;4665;51.368;6.782;2023-03-03T07:36:58;52.30;;;24.60;;
9256;SDS011;4665;51.368;6.782;2023-03-03T07:39:36;43.83;;;22.93;;
9256;SDS011;4665;51.368;6.782;2023-03-03T07:44:39;41.60;;;20.97;;
9256;SDS011;4665;51.368;6.782;2023-03-03T07:47:37;43.93;;;21.13;;
9256;SDS011;4665;51.368;6.782;2023-03-03T07:50:00;42.07;;;21.07;;
9256;SDS011;4665;51.368;6.782;2023-03-03T07:52:43;39.07;;;20.10;;
9256;SDS011;4665;51.368;6.782;2023-03-03T07:55:30;47.37;;;22.20;;
9256;SDS011;4665;51.368;6.782;2023-03-03T08:03:27;45.10;;;22.50;;
9256;SDS011;4665;51.368;6.782;2023-03-03T08:05:52;46.50;;;22.60;;
9256;SDS011;4665;51.368;6.782;2023-03-03T08:08:36;51.17;;;23.47;;
9256;SDS011;4665;51.368;6.782;2023-03-03T08:11:01;48.90;;;23.23;;
9256;SDS011;4665;51.368;6.782;2023-03-03T08:21:04;40.37;;;21.10;;
9256;SDS011;4665;51.368;6.782;2023-03-03T08:23:37;46.73;;;23.47;;
9256;SDS011;4665;51.368;6.782;2023-03-03T08:26:02;50.33;;;23.60;;
9256;SDS011;4665;51.368;6.782;2023-03-03T08:28:28;43.87;;;21.87;;
9256;SDS011;4665;51.368;6.782;2023-03-03T08:30:53;45.83;;;22.10;;
9256;SDS011;4665;51.368;6.782;2023-03-03T08:33:19;46.00;;;21.10;;
9256;SDS011;4665;51.368;6.782;2023-03-03T08:35:45;46.47;;;23.13;;
9256;SDS011;4665;51.368;6.782;2023-03-03T08:38:12;42.17;;;22.33;;
9256;SDS011;4665;51.368;6.782;2023-03-03T08:40:40;47.10;;;23.70;;
9256;SDS011;4665;51.368;6.782;2023-03-03T08:43:06;43.23;;;22.30;;
9256;SDS011;4665;51.368;6.782;2023-03-03T08:45:32;46.37;;;22.83;;
9256;SDS011;4665;51.368;6.782;2023-03-03T08:48:06;42.47;;;21.10;;
9256;SDS011;4665;51.368;6.782;2023-03-03T08:50:32;38.77;;;20.23;;
9256;SDS011;4665;51.368;6.782;2023-03-03T08:52:57;40.43;;;20.20;;
9256;SDS011;4665;51.368;6.782;2023-03-03T08:55:23;54.47;;;27.27;;
9256;SDS011;4665;51.368;6.782;2023-03-03T08:57:48;57.10;;;28.43;;
9256;SDS011;4665;51.368;6.782;2023-03-03T09:00:16;65.10;;;30.63;;
9256;SDS011;4665;51.368;6.782;2023-03-03T09:02:42;65.93;;;30.83;;
9256;SDS011;4665;51.368;6.782;2023-03-03T09:05:08;57.33;;;29.23;;
9256;SDS011;4665;51.368;6.782;2023-03-03T09:07:34;61.73;;;29.43;;
9256;SDS011;4665;51.368;6.782;2023-03-03T09:10:00;65.70;;;31.90;;
9256;SDS011;4665;51.368;6.782;2023-03-03T09:14:58;64.73;;;29.63;;
9256;SDS011;4665;51.368;6.782;2023-03-03T09:17:36;66.90;;;29.63;;
9256;SDS011;4665;51.368;6.782;2023-03-03T09:25:53;59.10;;;28.00;;
9256;SDS011;4665;51.368;6.782;2023-03-03T09:28:29;54.03;;;27.17;;
9256;SDS011;4665;51.368;6.782;2023-03-03T09:30:57;56.33;;;26.57;;
9256;SDS011;4665;51.368;6.782;2023-03-03T09:38:50;57.40;;;27.63;;
9256;SDS011;4665;51.368;6.782;2023-03-03T09:57:20;52.50;;;24.63;;
9256;SDS011;4665;51.368;6.782;2023-03-03T10:05:11;52.77;;;25.67;;
9256;SDS011;4665;51.368;6.782;2023-03-03T10:19:26;52.50;;;24.93;;
9256;SDS011;4665;51.368;6.782;2023-03-03T10:25:18;51.20;;;25.40;;
9256;SDS011;4665;51.368;6.782;2023-03-03T10:40:00;56.70;;;27.63;;
9256;SDS011;4665;51.368;6.782;2023-03-03T10:42:39;52.73;;;27.07;;
9256;SDS011;4665;51.368;6.782;2023-03-03T10:45:15;49.53;;;24.77;;
9256;SDS011;4665;51.368;6.782;2023-03-03T10:57:07;45.80;;;23.80;;
9256;SDS011;4665;51.368;6.782;2023-03-03T11:02:34;50.50;;;25.50;;
9256;SDS011;4665;51.368;6.782;2023-03-03T11:07:51;49.60;;;26.87;;
9256;SDS011;4665;51.368;6.782;2023-03-03T11:16:20;44.70;;;23.67;;
9256;SDS011;4665;51.368;6.782;2023-03-03T11:21:34;44.27;;;22.30;;
9256;SDS011;4665;51.368;6.782;2023-03-03T11:29:45;38.67;;;21.27;;
9256;SDS011;4665;51.368;6.782;2023-03-03T11:35:45;38.87;;;22.63;;
9256;SDS011;4665;51.368;6.782;2023-03-03T11:38:36;43.80;;;22.63;;
9256;SDS011;4665;51.368;6.782;2023-03-03T11:44:33;45.87;;;24.37;;
9256;SDS011;4665;51.368;6.782;2023-03-03T11:49:55;42.37;;;22.17;;
9256;SDS011;4665;51.368;6.782;2023-03-03T11:55:37;37.43;;;21.47;;
9256;SDS011;4665;51.368;6.782;2023-03-03T11:58:51;41.93;;;23.53;;
9256;SDS011;4665;51.368;6.782;2023-03-03T12:03:33;39.83;;;22.03;;
9256;SDS011;4665;51.368;6.782;2023-03-03T12:06:22;36.60;;;21.50;;
9256;SDS011;4665;51.368;6.782;2023-03-03T12:14:09;37.57;;;22.20;;
9256;SDS011;4665;51.368;6.782;2023-03-03T12:16:53;36.23;;;20.70;;
9256;SDS011;4665;51.368;6.782;2023-03-03T12:19:30;38.83;;;22.37;;
9256;SDS011;4665;51.368;6.782;2023-03-03T12:22:17;38.83;;;23.10;;
9256;SDS011;4665;51.368;6.782;2023-03-03T12:27:57;38.73;;;22.87;;
9256;SDS011;4665;51.368;6.782;2023-03-03T12:41:46;34.37;;;21.27;;
9256;SDS011;4665;51.368;6.782;2023-03-03T12:44:37;33.87;;;21.97;;
9256;SDS011;4665;51.368;6.782;2023-03-03T12:49:45;33.10;;;20.53;;
9256;SDS011;4665;51.368;6.782;2023-03-03T12:57:55;39.10;;;23.83;;
9256;SDS011;4665;51.368;6.782;2023-03-03T13:00:29;40.90;;;25.90;;
9256;SDS011;4665;51.368;6.782;2023-03-03T13:03:02;45.23;;;25.93;;
9256;SDS011;4665;51.368;6.782;2023-03-03T13:08:25;42.97;;;25.87;;
9256;SDS011;4665;51.368;6.782;2023-03-03T13:14:02;43.97;;;26.13;;
9256;SDS011;4665;51.368;6.782;2023-03-03T13:19:52;42.43;;;25.57;;
9256;SDS011;4665;51.368;6.782;2023-03-03T13:22:37;40.43;;;24.90;;
9256;SDS011;4665;51.368;6.782;2023-03-03T13:25:28;41.57;;;25.30;;
9256;SDS011;4665;51.368;6.782;2023-03-03T13:28:01;37.70;;;23.53;;
9256;SDS011;4665;51.368;6.782;2023-03-03T13:30:54;39.00;;;23.43;;
9256;SDS011;4665;51.368;6.782;2023-03-03T13:33:30;36.50;;;21.57;;
9256;SDS011;4665;51.368;6.782;2023-03-03T13:36:04;42.13;;;25.27;;
9256;SDS011;4665;51.368;6.782;2023-03-03T13:38:40;41.40;;;25.43;;
9256;SDS011;4665;51.368;6.782;2023-03-03T13:43:45;42.97;;;24.10;;
9256;SDS011;4665;51.368;6.782;2023-03-03T13:56:48;30.73;;;20.20;;
9256;SDS011;4665;51.368;6.782;2023-03-03T13:59:35;29.20;;;19.50;;
9256;SDS011;4665;51.368;6.782;2023-03-03T14:05:12;26.73;;;18.10;;
9256;SDS011;4665;51.368;6.782;2023-03-03T14:10:20;30.07;;;20.23;;
9256;SDS011;4665;51.368;6.782;2023-03-03T14:15:29;27.03;;;17.93;;
9256;SDS011;4665;51.368;6.782;2023-03-03T14:20:55;28.03;;;19.30;;
9256;SDS011;4665;51.368;6.782;2023-03-03T14:26:38;28.77;;;19.00;;
9256;SDS011;4665;51.368;6.782;2023-03-03T14:29:21;31.77;;;19.77;;
9256;SDS011;4665;51.368;6.782;2023-03-03T14:31:50;26.27;;;17.83;;
9256;SDS011;4665;51.368;6.782;2023-03-03T14:36:48;28.97;;;19.80;;
9256;SDS011;4665;51.368;6.782;2023-03-03T14:42:01;27.63;;;19.00;;
9256;SDS011;4665;51.368;6.782;2023-03-03T14:44:37;24.83;;;17.27;;
9256;SDS011;4665;51.368;6.782;2023-03-03T14:47:24;24.47;;;17.97;;
9256;SDS011;4665;51.368;6.782;2023-03-03T14:49:52;25.93;;;17.73;;
9256;SDS011;4665;51.368;6.782;2023-03-03T14:52:31;27.47;;;19.00;;
9256;SDS011;4665;51.368;6.782;2023-03-03T14:54:59;27.03;;;18.07;;
9256;SDS011;4665;51.368;6.782;2023-03-03T15:05:51;24.50;;;17.47;;
9256;SDS011;4665;51.368;6.782;2023-03-03T15:08:23;23.43;;;17.13;;
9256;SDS011;4665;51.368;6.782;2023-03-03T15:10:55;24.97;;;17.47;;
9256;SDS011;4665;51.368;6.782;2023-03-03T15:13:36;24.17;;;17.07;;
9256;SDS011;4665;51.368;6.782;2023-03-03T15:16:23;25.53;;;17.17;;
9256;SDS011;4665;51.368;6.782;2023-03-03T15:21:53;25.43;;;17.80;;
9256;SDS011;4665;51.368;6.782;2023-03-03T15:24:30;23.33;;;16.93;;
9256;SDS011;4665;51.368;6.782;2023-03-03T15:27:05;27.23;;;17.47;;
9256;SDS011;4665;51.368;6.782;2023-03-03T15:32:39;24.73;;;16.53;;
9256;SDS011;4665;51.368;6.782;2023-03-03T15:38:14;22.07;;;15.43;;
9256;SDS011;4665;51.368;6.782;2023-03-03T15:41:18;20.73;;;14.83;;
9256;SDS011;4665;51.368;6.782;2023-03-03T15:46:53;20.87;;;14.43;;
9256;SDS011;4665;51.368;6.782;2023-03-03T15:49:38;22.63;;;15.47;;
9256;SDS011;4665;51.368;6.782;2023-03-03T15:52:39;21.33;;;14.43;;
9256;SDS011;4665;51.368;6.782;2023-03-03T16:01:00;18.40;;;12.90;;
9256;SDS011;4665;51.368;6.782;2023-03-03T16:03:46;18.97;;;12.00;;
9256;SDS011;4665;51.368;6.782;2023-03-03T16:06:24;18.40;;;12.60;;
9256;SDS011;4665;51.368;6.782;2023-03-03T16:11:38;20.50;;;12.13;;
9256;SDS011;4665;51.368;6.782;2023-03-03T16:24:52;20.87;;;12.53;;
9256;SDS011;4665;51.368;6.782;2023-03-03T16:36:13;17.43;;;11.77;;
9256;SDS011;4665;51.368;6.782;2023-03-03T16:38:50;19.90;;;12.83;;
9256;SDS011;4665;51.368;6.782;2023-03-03T16:41:25;19.80;;;11.80;;
9256;SDS011;4665;51.368;6.782;2023-03-03T16:47:00;19.83;;;12.47;;
9256;SDS011;4665;51.368;6.782;2023-03-03T16:52:28;19.63;;;12.60;;
9256;SDS011;4665;51.368;6.782;2023-03-03T16:55:20;21.13;;;13.13;;
9256;SDS011;4665;51.368;6.782;2023-03-03T17:01:07;19.00;;;12.90;;
9256;SDS011;4665;51.368;6.782;2023-03-03T17:06:41;17.70;;;12.27;;
9256;SDS011;4665;51.368;6.782;2023-03-03T17:26:12;18.30;;;11.53;;
9256;SDS011;4665;51.368;6.782;2023-03-03T17:34:42;19.27;;;12.77;;
9256;SDS011;4665;51.368;6.782;2023-03-03T17:37:33;19.50;;;13.30;;
9256;SDS011;4665;51.368;6.782;2023-03-03T17:46:03;20.80;;;13.40;;
9256;SDS011;4665;51.368;6.782;2023-03-03T17:54:29;22.33;;;14.13;;
9256;SDS011;4665;51.368;6.782;2023-03-03T18:11:18;19.37;;;12.57;;
9256;SDS011;4665;51.368;6.782;2023-03-03T18:32:44;21.83;;;14.53;;
9256;SDS011;4665;51.368;6.782;2023-03-03T18:40:49;19.87;;;13.17;;
9256;SDS011;4665;51.368;6.782;2023-03-03T18:46:03;19.77;;;14.03;;
9256;SDS011;4665;51.368;6.782;2023-03-03T18:51:10;21.10;;;14.17;;
9256;SDS011;4665;51.368;6.782;2023-03-03T18:53:36;21.37;;;13.70;;
9256;SDS011;4665;51.368;6.782;2023-03-03T18:56:02;18.23;;;12.53;;
9256;SDS011;4665;51.368;6.782;2023-03-03T18:58:38;22.73;;;13.17;;
9256;SDS011;4665;51.368;6.782;2023-03-03T19:04:08;23.30;;;13.97;;
9256;SDS011;4665;51.368;6.782;2023-03-03T19:09:03;20.53;;;12.80;;
9256;SDS011;4665;51.368;6.782;2023-03-03T19:11:39;24.33;;;15.27;;
9256;SDS011;4665;51.368;6.782;2023-03-03T19:20:00;27.60;;;16.60;;
9256;SDS011;4665;51.368;6.782;2023-03-03T19:22:48;31.20;;;18.60;;
9256;SDS011;4665;51.368;6.782;2023-03-03T19:25:21;26.57;;;16.30;;
9256;SDS011;4665;51.368;6.782;2023-03-03T19:30:41;30.07;;;17.73;;
9256;SDS011;4665;51.368;6.782;2023-03-03T19:52:53;24.40;;;15.93;;
9256;SDS011;4665;51.368;6.782;2023-03-03T19:57:54;24.23;;;15.90;;
9256;SDS011;4665;51.368;6.782;2023-03-03T20:00:32;24.50;;;15.70;;
9256;SDS011;4665;51.368;6.782;2023-03-03T20:05:53;25.60;;;15.50;;
9256;SDS011;4665;51.368;6.782;2023-03-03T20:08:30;29.63;;;16.73;;
9256;SDS011;4665;51.368;6.782;2023-03-03T20:16:36;25.07;;;17.03;;
9256;SDS011;4665;51.368;6.782;2023-03-03T20:33:12;26.67;;;16.63;;
9256;SDS011;4665;51.368;6.782;2023-03-03T20:36:00;25.40;;;16.40;;
9256;SDS011;4665;51.368;6.782;2023-03-03T20:57:44;23.20;;;15.63;;
9256;SDS011;4665;51.368;6.782;2023-03-03T21:03:05;27.77;;;17.67;;
9256;SDS011;4665;51.368;6.782;2023-03-03T21:05:52;25.93;;;16.63;;
9256;SDS011;4665;51.368;6.782;2023-03-03T21:08:20;31.50;;;18.53;;
9256;SDS011;4665;51.368;6.782;2023-03-03T21:11:04;26.10;;;16.93;;
9256;SDS011;4665;51.368;6.782;2023-03-03T21:15:59;26.87;;;17.23;;
9256;SDS011;4665;51.368;6.782;2023-03-03T21:18:41;28.83;;;18.00;;
9256;SDS011;4665;51.368;6.782;2023-03-03T21:21:11;28.90;;;17.73;;
9256;SDS011;4665;51.368;6.782;2023-03-03T21:23:37;28.03;;;17.83;;
9256;SDS011;4665;51.368;6.782;2023-03-03T21:26:02;26.90;;;17.33;;
9256;SDS011;4665;51.368;6.782;2023-03-03T21:28:32;29.23;;;17.60;;
9256;SDS011;4665;51.368;6.782;2023-03-03T21:33:39;28.03;;;17.87;;
9256;SDS011;4665;51.368;6.782;2023-03-03T21:36:17;28.80;;;17.97;;
9256;SDS011;4665;51.368;6.782;2023-03-03T21:41:59;26.00;;;16.07;;
9256;SDS011;4665;51.368;6.782;2023-03-03T21:44:40;26.43;;;17.67;;
9256;SDS011;4665;51.368;6.782;2023-03-03T21:47:12;23.80;;;15.93;;
9256;SDS011;4665;51.368;6.782;2023-03-03T21:49:40;26.20;;;16.90;;
9256;SDS011;4665;51.368;6.782;2023-03-03T21:52:10;26.47;;;16.70;;
9256;SDS011;4665;51.368;6.782;2023-03-03T21:54:38;24.93;;;15.80;;
9256;SDS011;4665;51.368;6.782;2023-03-03T21:57:04;27.00;;;17.10;;
9256;SDS011;4665;51.368;6.782;2023-03-03T21:59:30;27.27;;;17.20;;
9256;SDS011;4665;51.368;6.782;2023-03-03T22:01:55;25.37;;;17.10;;
9256;SDS011;4665;51.368;6.782;2023-03-03T22:04:21;14.13;;;11.97;;
9256;SDS011;4665;51.368;6.782;2023-03-03T22:06:46;12.70;;;10.57;;
9256;SDS011;4665;51.368;6.782;2023-03-03T22:09:12;14.47;;;10.53;;
9256;SDS011;4665;51.368;6.782;2023-03-03T22:11:37;9.63;;;7.63;;
9256;SDS011;4665;51.368;6.782;2023-03-03T22:14:03;8.60;;;6.30;;
9256;SDS011;4665;51.368;6.782;2023-03-03T22:16:30;11.93;;;7.47;;
9256;SDS011;4665;51.368;6.782;2023-03-03T22:18:56;9.73;;;8.53;;
9256;SDS011;4665;51.368;6.782;2023-03-03T22:21:21;11.73;;;7.37;;
9256;SDS011;4665;51.368;6.782;2023-03-03T22:23:47;11.27;;;7.13;;
9256;SDS011;4665;51.368;6.782;2023-03-03T22:26:12;9.50;;;6.87;;
9256;SDS011;4665;51.368;6.782;2023-03-03T22:28:37;11.03;;;6.60;;